sensor_id;sensor_type;location;lat;lon;timestamp;P1;durP1;ratioP1;P2;durP2;ratioP2
29362;SDS011;16349;53.672;10.014;2022-10-13T00:00:48;7.93;;;3.33;;
29362;SDS011;16349;53.672;10.014;2022-10-13T00:03:15;7.17;;;3.63;;
29362;SDS011;16349;53.672;10.014;2022-10-13T00:05:45;9.17;;;3.67;;
29362;SDS011;16349;53.672;10.014;2022-10-13T00:08:14;9.47;;;3.30;;
29362;SDS011;16349;53.672;10.014;2022-10-13T00:10:45;8.07;;;3.50;;
29362;SDS011;16349;53.672;10.014;2022-10-13T00:13:13;8.03;;;3.30;;
29362;SDS011;16349;53.672;10.014;2022-10-13T00:15:40;6.93;;;3.60;;
29362;SDS011;16349;53.672;10.014;2022-10-13T00:18:09;6.93;;;3.17;;
29362;SDS011;16349;53.672;10.014;2022-10-13T00:20:39;8.37;;;2.73;;
29362;SDS011;16349;53.672;10.014;2022-10-13T00:23:06;6.47;;;2.90;;
29362;SDS011;16349;53.672;10.014;2022-10-13T00:25:33;9.00;;;3.13;;
29362;SDS011;16349;53.672;10.014;2022-10-13T00:28:01;5.37;;;3.07;;
29362;SDS011;16349;53.672;10.014;2022-10-13T00:30:32;6.30;;;3.60;;
29362;SDS011;16349;53.672;10.014;2022-10-13T00:32:59;4.63;;;3.13;;
29362;SDS011;16349;53.672;10.014;2022-10-13T00:35:25;8.93;;;4.03;;
29362;SDS011;16349;53.672;10.014;2022-10-13T00:37:52;5.60;;;3.00;;
29362;SDS011;16349;53.672;10.014;2022-10-13T00:40:19;9.33;;;3.30;;
29362;SDS011;16349;53.672;10.014;2022-10-13T00:42:45;8.53;;;3.50;;
29362;SDS011;16349;53.672;10.014;2022-10-13T00:45:20;7.20;;;3.50;;
29362;SDS011;16349;53.672;10.014;2022-10-13T00:47:49;5.40;;;3.00;;
29362;SDS011;16349;53.672;10.014;2022-10-13T00:50:21;10.00;;;3.17;;
29362;SDS011;16349;53.672;10.014;2022-10-13T00:52:53;8.73;;;3.63;;
29362;SDS011;16349;53.672;10.014;2022-10-13T00:55:24;8.37;;;3.40;;
29362;SDS011;16349;53.672;10.014;2022-10-13T00:57:54;10.37;;;3.00;;
29362;SDS011;16349;53.672;10.014;2022-10-13T01:00:29;8.67;;;3.40;;
29362;SDS011;16349;53.672;10.014;2022-10-13T01:02:58;6.37;;;3.40;;
29362;SDS011;16349;53.672;10.014;2022-10-13T01:05:25;5.10;;;3.27;;
29362;SDS011;16349;53.672;10.014;2022-10-13T01:07:53;8.67;;;2.80;;
29362;SDS011;16349;53.672;10.014;2022-10-13T01:10:24;6.33;;;3.10;;
29362;SDS011;16349;53.672;10.014;2022-10-13T01:13:02;6.37;;;2.97;;
29362;SDS011;16349;53.672;10.014;2022-10-13T01:15:40;5.53;;;3.40;;
29362;SDS011;16349;53.672;10.014;2022-10-13T01:18:12;7.23;;;2.50;;
29362;SDS011;16349;53.672;10.014;2022-10-13T01:20:55;5.33;;;3.00;;
29362;SDS011;16349;53.672;10.014;2022-10-13T01:23:36;7.20;;;2.97;;
29362;SDS011;16349;53.672;10.014;2022-10-13T01:26:32;5.83;;;3.07;;
29362;SDS011;16349;53.672;10.014;2022-10-13T01:29:21;6.10;;;3.00;;
29362;SDS011;16349;53.672;10.014;2022-10-13T01:32:14;5.03;;;2.70;;
29362;SDS011;16349;53.672;10.014;2022-10-13T01:34:50;6.43;;;2.47;;
29362;SDS011;16349;53.672;10.014;2022-10-13T01:37:25;8.93;;;3.40;;
29362;SDS011;16349;53.672;10.014;2022-10-13T01:39:56;11.73;;;2.87;;
29362;SDS011;16349;53.672;10.014;2022-10-13T01:42:32;5.60;;;2.60;;
29362;SDS011;16349;53.672;10.014;2022-10-13T01:45:11;5.73;;;2.93;;
29362;SDS011;16349;53.672;10.014;2022-10-13T01:47:44;7.03;;;3.00;;
29362;SDS011;16349;53.672;10.014;2022-10-13T01:50:11;7.73;;;3.20;;
29362;SDS011;16349;53.672;10.014;2022-10-13T01:52:41;5.77;;;2.97;;
29362;SDS011;16349;53.672;10.014;2022-10-13T01:55:10;6.07;;;3.47;;
29362;SDS011;16349;53.672;10.014;2022-10-13T01:57:39;7.90;;;3.60;;
29362;SDS011;16349;53.672;10.014;2022-10-13T02:00:08;4.47;;;3.20;;
29362;SDS011;16349;53.672;10.014;2022-10-13T02:02:39;4.77;;;3.03;;
29362;SDS011;16349;53.672;10.014;2022-10-13T02:05:15;4.67;;;3.23;;
29362;SDS011;16349;53.672;10.014;2022-10-13T02:07:53;7.87;;;2.93;;
29362;SDS011;16349;53.672;10.014;2022-10-13T02:10:25;10.53;;;3.07;;
29362;SDS011;16349;53.672;10.014;2022-10-13T02:12:58;9.67;;;3.20;;
29362;SDS011;16349;53.672;10.014;2022-10-13T02:15:27;5.97;;;3.00;;
29362;SDS011;16349;53.672;10.014;2022-10-13T02:17:59;3.40;;;2.90;;
29362;SDS011;16349;53.672;10.014;2022-10-13T02:20:28;7.47;;;3.03;;
29362;SDS011;16349;53.672;10.014;2022-10-13T02:22:58;6.10;;;3.00;;
29362;SDS011;16349;53.672;10.014;2022-10-13T02:25:29;4.50;;;2.83;;
29362;SDS011;16349;53.672;10.014;2022-10-13T02:27:59;8.23;;;3.77;;
29362;SDS011;16349;53.672;10.014;2022-10-13T02:30:30;6.60;;;3.43;;
29362;SDS011;16349;53.672;10.014;2022-10-13T02:32:58;5.97;;;2.90;;
29362;SDS011;16349;53.672;10.014;2022-10-13T02:35:25;8.23;;;2.80;;
29362;SDS011;16349;53.672;10.014;2022-10-13T02:37:53;9.23;;;3.20;;
29362;SDS011;16349;53.672;10.014;2022-10-13T02:40:20;3.93;;;2.70;;
29362;SDS011;16349;53.672;10.014;2022-10-13T02:42:47;4.87;;;3.20;;
29362;SDS011;16349;53.672;10.014;2022-10-13T02:45:14;8.20;;;3.37;;
29362;SDS011;16349;53.672;10.014;2022-10-13T02:47:41;7.40;;;3.60;;
29362;SDS011;16349;53.672;10.014;2022-10-13T02:50:08;4.73;;;3.10;;
29362;SDS011;16349;53.672;10.014;2022-10-13T02:52:34;7.10;;;3.67;;
29362;SDS011;16349;53.672;10.014;2022-10-13T02:55:03;7.27;;;3.17;;
29362;SDS011;16349;53.672;10.014;2022-10-13T02:57:31;8.47;;;3.50;;
29362;SDS011;16349;53.672;10.014;2022-10-13T02:59:57;11.57;;;4.30;;
29362;SDS011;16349;53.672;10.014;2022-10-13T03:02:26;7.13;;;3.97;;
29362;SDS011;16349;53.672;10.014;2022-10-13T03:04:54;9.60;;;3.87;;
29362;SDS011;16349;53.672;10.014;2022-10-13T03:07:20;7.00;;;3.60;;
29362;SDS011;16349;53.672;10.014;2022-10-13T03:09:47;5.33;;;3.20;;
29362;SDS011;16349;53.672;10.014;2022-10-13T03:12:15;5.90;;;3.40;;
29362;SDS011;16349;53.672;10.014;2022-10-13T03:14:42;6.50;;;3.20;;
29362;SDS011;16349;53.672;10.014;2022-10-13T03:17:08;6.03;;;3.20;;
29362;SDS011;16349;53.672;10.014;2022-10-13T03:19:35;5.40;;;4.00;;
29362;SDS011;16349;53.672;10.014;2022-10-13T03:22:02;9.20;;;3.40;;
29362;SDS011;16349;53.672;10.014;2022-10-13T03:24:29;7.40;;;4.27;;
29362;SDS011;16349;53.672;10.014;2022-10-13T03:26:56;4.97;;;3.53;;
29362;SDS011;16349;53.672;10.014;2022-10-13T03:29:24;7.37;;;3.90;;
29362;SDS011;16349;53.672;10.014;2022-10-13T03:31:50;7.93;;;3.87;;
29362;SDS011;16349;53.672;10.014;2022-10-13T03:34:17;6.20;;;3.40;;
29362;SDS011;16349;53.672;10.014;2022-10-13T03:36:44;7.33;;;4.03;;
29362;SDS011;16349;53.672;10.014;2022-10-13T03:39:11;6.80;;;3.93;;
29362;SDS011;16349;53.672;10.014;2022-10-13T03:41:38;7.00;;;3.87;;
29362;SDS011;16349;53.672;10.014;2022-10-13T03:44:04;6.00;;;3.40;;
29362;SDS011;16349;53.672;10.014;2022-10-13T03:46:33;7.53;;;3.60;;
29362;SDS011;16349;53.672;10.014;2022-10-13T03:49:00;4.30;;;3.70;;
29362;SDS011;16349;53.672;10.014;2022-10-13T03:51:28;7.97;;;3.90;;
29362;SDS011;16349;53.672;10.014;2022-10-13T03:53:55;9.27;;;3.83;;
29362;SDS011;16349;53.672;10.014;2022-10-13T03:56:23;9.20;;;4.23;;
29362;SDS011;16349;53.672;10.014;2022-10-13T03:58:51;4.03;;;3.57;;
29362;SDS011;16349;53.672;10.014;2022-10-13T04:01:20;6.60;;;3.67;;
29362;SDS011;16349;53.672;10.014;2022-10-13T04:03:50;8.23;;;4.50;;
29362;SDS011;16349;53.672;10.014;2022-10-13T04:06:17;5.13;;;3.70;;
29362;SDS011;16349;53.672;10.014;2022-10-13T04:08:44;9.47;;;3.93;;
29362;SDS011;16349;53.672;10.014;2022-10-13T04:11:12;8.33;;;4.33;;
29362;SDS011;16349;53.672;10.014;2022-10-13T04:13:41;6.50;;;4.47;;
29362;SDS011;16349;53.672;10.014;2022-10-13T04:16:11;6.97;;;4.23;;
29362;SDS011;16349;53.672;10.014;2022-10-13T04:18:40;7.00;;;3.83;;
29362;SDS011;16349;53.672;10.014;2022-10-13T04:21:08;9.77;;;4.30;;
29362;SDS011;16349;53.672;10.014;2022-10-13T04:23:37;5.77;;;4.10;;
29362;SDS011;16349;53.672;10.014;2022-10-13T04:26:04;8.33;;;4.10;;
29362;SDS011;16349;53.672;10.014;2022-10-13T04:28:31;4.50;;;4.10;;
29362;SDS011;16349;53.672;10.014;2022-10-13T04:30:59;7.17;;;4.37;;
29362;SDS011;16349;53.672;10.014;2022-10-13T04:33:26;14.70;;;5.10;;
29362;SDS011;16349;53.672;10.014;2022-10-13T04:35:53;6.43;;;4.80;;
29362;SDS011;16349;53.672;10.014;2022-10-13T04:38:21;8.47;;;4.27;;
29362;SDS011;16349;53.672;10.014;2022-10-13T04:40:48;9.87;;;4.93;;
29362;SDS011;16349;53.672;10.014;2022-10-13T04:43:15;9.33;;;4.60;;
29362;SDS011;16349;53.672;10.014;2022-10-13T04:45:42;10.13;;;4.87;;
29362;SDS011;16349;53.672;10.014;2022-10-13T04:48:08;7.27;;;4.37;;
29362;SDS011;16349;53.672;10.014;2022-10-13T04:50:35;8.57;;;4.70;;
29362;SDS011;16349;53.672;10.014;2022-10-13T04:53:02;10.97;;;4.63;;
29362;SDS011;16349;53.672;10.014;2022-10-13T04:55:30;7.83;;;4.40;;
29362;SDS011;16349;53.672;10.014;2022-10-13T04:57:57;12.13;;;4.50;;
29362;SDS011;16349;53.672;10.014;2022-10-13T05:00:23;9.97;;;5.07;;
29362;SDS011;16349;53.672;10.014;2022-10-13T05:02:50;8.73;;;5.57;;
29362;SDS011;16349;53.672;10.014;2022-10-13T05:05:17;8.73;;;5.57;;
29362;SDS011;16349;53.672;10.014;2022-10-13T05:07:44;5.77;;;4.53;;
29362;SDS011;16349;53.672;10.014;2022-10-13T05:10:10;8.37;;;4.57;;
29362;SDS011;16349;53.672;10.014;2022-10-13T05:12:38;7.93;;;5.00;;
29362;SDS011;16349;53.672;10.014;2022-10-13T05:15:05;7.27;;;4.60;;
29362;SDS011;16349;53.672;10.014;2022-10-13T05:17:33;6.00;;;4.60;;
29362;SDS011;16349;53.672;10.014;2022-10-13T05:20:04;12.63;;;4.27;;
29362;SDS011;16349;53.672;10.014;2022-10-13T05:22:31;6.83;;;4.60;;
29362;SDS011;16349;53.672;10.014;2022-10-13T05:24:58;7.67;;;4.73;;
29362;SDS011;16349;53.672;10.014;2022-10-13T05:27:25;8.50;;;4.47;;
29362;SDS011;16349;53.672;10.014;2022-10-13T05:29:53;9.50;;;4.80;;
29362;SDS011;16349;53.672;10.014;2022-10-13T05:32:19;7.93;;;4.77;;
29362;SDS011;16349;53.672;10.014;2022-10-13T05:34:46;12.50;;;5.43;;
29362;SDS011;16349;53.672;10.014;2022-10-13T05:37:13;7.67;;;5.13;;
29362;SDS011;16349;53.672;10.014;2022-10-13T05:39:42;9.63;;;5.13;;
29362;SDS011;16349;53.672;10.014;2022-10-13T05:42:09;7.47;;;4.90;;
29362;SDS011;16349;53.672;10.014;2022-10-13T05:44:36;11.77;;;5.33;;
29362;SDS011;16349;53.672;10.014;2022-10-13T05:47:04;12.03;;;4.87;;
29362;SDS011;16349;53.672;10.014;2022-10-13T05:49:31;7.90;;;5.00;;
29362;SDS011;16349;53.672;10.014;2022-10-13T05:52:01;8.30;;;5.10;;
29362;SDS011;16349;53.672;10.014;2022-10-13T05:54:29;9.90;;;5.30;;
29362;SDS011;16349;53.672;10.014;2022-10-13T05:57:02;8.30;;;5.00;;
29362;SDS011;16349;53.672;10.014;2022-10-13T05:59:34;7.87;;;5.20;;
29362;SDS011;16349;53.672;10.014;2022-10-13T06:02:06;9.63;;;5.87;;
29362;SDS011;16349;53.672;10.014;2022-10-13T06:04:36;17.80;;;6.53;;
29362;SDS011;16349;53.672;10.014;2022-10-13T06:07:06;13.60;;;5.47;;
29362;SDS011;16349;53.672;10.014;2022-10-13T06:09:35;11.13;;;5.77;;
29362;SDS011;16349;53.672;10.014;2022-10-13T06:12:03;9.13;;;5.93;;
29362;SDS011;16349;53.672;10.014;2022-10-13T06:14:30;8.77;;;5.83;;
29362;SDS011;16349;53.672;10.014;2022-10-13T06:16:59;7.97;;;5.90;;
29362;SDS011;16349;53.672;10.014;2022-10-13T06:19:27;8.87;;;5.43;;
29362;SDS011;16349;53.672;10.014;2022-10-13T06:21:54;9.53;;;5.90;;
29362;SDS011;16349;53.672;10.014;2022-10-13T06:24:20;9.87;;;5.77;;
29362;SDS011;16349;53.672;10.014;2022-10-13T06:26:47;9.27;;;6.03;;
29362;SDS011;16349;53.672;10.014;2022-10-13T06:29:14;10.40;;;5.77;;
29362;SDS011;16349;53.672;10.014;2022-10-13T06:31:40;13.80;;;5.90;;
29362;SDS011;16349;53.672;10.014;2022-10-13T06:34:08;13.07;;;5.80;;
29362;SDS011;16349;53.672;10.014;2022-10-13T06:36:36;7.33;;;5.33;;
29362;SDS011;16349;53.672;10.014;2022-10-13T06:39:03;10.07;;;6.17;;
29362;SDS011;16349;53.672;10.014;2022-10-13T06:41:29;12.23;;;5.83;;
29362;SDS011;16349;53.672;10.014;2022-10-13T06:43:56;7.87;;;6.07;;
29362;SDS011;16349;53.672;10.014;2022-10-13T06:46:23;10.57;;;6.20;;
29362;SDS011;16349;53.672;10.014;2022-10-13T06:48:49;10.33;;;6.00;;
29362;SDS011;16349;53.672;10.014;2022-10-13T06:51:18;8.80;;;6.33;;
29362;SDS011;16349;53.672;10.014;2022-10-13T06:53:49;10.97;;;6.23;;
29362;SDS011;16349;53.672;10.014;2022-10-13T06:56:20;14.87;;;6.70;;
29362;SDS011;16349;53.672;10.014;2022-10-13T06:58:47;12.53;;;6.40;;
29362;SDS011;16349;53.672;10.014;2022-10-13T07:01:13;11.20;;;6.43;;
29362;SDS011;16349;53.672;10.014;2022-10-13T07:03:41;11.90;;;5.47;;
29362;SDS011;16349;53.672;10.014;2022-10-13T07:06:07;11.90;;;7.53;;
29362;SDS011;16349;53.672;10.014;2022-10-13T07:08:34;13.00;;;7.10;;
29362;SDS011;16349;53.672;10.014;2022-10-13T07:11:06;10.37;;;6.43;;
29362;SDS011;16349;53.672;10.014;2022-10-13T07:13:34;14.37;;;7.97;;
29362;SDS011;16349;53.672;10.014;2022-10-13T07:16:01;13.93;;;6.63;;
29362;SDS011;16349;53.672;10.014;2022-10-13T07:18:29;11.67;;;6.97;;
29362;SDS011;16349;53.672;10.014;2022-10-13T07:20:56;12.20;;;7.13;;
29362;SDS011;16349;53.672;10.014;2022-10-13T07:23:24;10.77;;;6.83;;
29362;SDS011;16349;53.672;10.014;2022-10-13T07:25:51;14.33;;;6.63;;
29362;SDS011;16349;53.672;10.014;2022-10-13T07:28:22;14.17;;;7.20;;
29362;SDS011;16349;53.672;10.014;2022-10-13T07:30:48;13.70;;;7.47;;
29362;SDS011;16349;53.672;10.014;2022-10-13T07:33:15;9.93;;;7.53;;
29362;SDS011;16349;53.672;10.014;2022-10-13T07:35:42;14.07;;;8.00;;
29362;SDS011;16349;53.672;10.014;2022-10-13T07:38:08;12.77;;;6.80;;
29362;SDS011;16349;53.672;10.014;2022-10-13T07:40:36;12.37;;;7.27;;
29362;SDS011;16349;53.672;10.014;2022-10-13T07:43:03;14.97;;;6.90;;
29362;SDS011;16349;53.672;10.014;2022-10-13T07:45:31;12.60;;;7.10;;
29362;SDS011;16349;53.672;10.014;2022-10-13T07:47:58;12.60;;;7.30;;
29362;SDS011;16349;53.672;10.014;2022-10-13T07:50:25;11.87;;;7.57;;
29362;SDS011;16349;53.672;10.014;2022-10-13T07:52:51;12.73;;;7.00;;
29362;SDS011;16349;53.672;10.014;2022-10-13T07:55:18;15.10;;;7.17;;
29362;SDS011;16349;53.672;10.014;2022-10-13T07:57:45;12.23;;;7.37;;
29362;SDS011;16349;53.672;10.014;2022-10-13T08:00:12;15.00;;;7.60;;
29362;SDS011;16349;53.672;10.014;2022-10-13T08:02:40;15.13;;;7.60;;
29362;SDS011;16349;53.672;10.014;2022-10-13T08:05:07;13.80;;;6.93;;
29362;SDS011;16349;53.672;10.014;2022-10-13T08:07:34;9.13;;;7.67;;
29362;SDS011;16349;53.672;10.014;2022-10-13T08:10:02;13.53;;;8.37;;
29362;SDS011;16349;53.672;10.014;2022-10-13T08:12:29;13.33;;;8.00;;
29362;SDS011;16349;53.672;10.014;2022-10-13T08:14:56;13.43;;;7.40;;
29362;SDS011;16349;53.672;10.014;2022-10-13T08:17:23;9.90;;;7.63;;
29362;SDS011;16349;53.672;10.014;2022-10-13T08:19:51;14.93;;;7.67;;
29362;SDS011;16349;53.672;10.014;2022-10-13T08:22:22;13.43;;;8.43;;
29362;SDS011;16349;53.672;10.014;2022-10-13T08:24:50;14.57;;;8.13;;
29362;SDS011;16349;53.672;10.014;2022-10-13T08:27:18;17.70;;;8.87;;
29362;SDS011;16349;53.672;10.014;2022-10-13T08:29:47;13.53;;;9.00;;
29362;SDS011;16349;53.672;10.014;2022-10-13T08:32:14;14.20;;;8.67;;
29362;SDS011;16349;53.672;10.014;2022-10-13T08:34:45;16.33;;;8.33;;
29362;SDS011;16349;53.672;10.014;2022-10-13T08:37:14;15.80;;;8.53;;
29362;SDS011;16349;53.672;10.014;2022-10-13T08:39:43;16.27;;;8.63;;
29362;SDS011;16349;53.672;10.014;2022-10-13T08:42:11;16.13;;;8.40;;
29362;SDS011;16349;53.672;10.014;2022-10-13T08:44:43;14.10;;;8.33;;
29362;SDS011;16349;53.672;10.014;2022-10-13T08:47:19;12.87;;;9.20;;
29362;SDS011;16349;53.672;10.014;2022-10-13T08:50:00;12.40;;;9.10;;
29362;SDS011;16349;53.672;10.014;2022-10-13T08:52:40;20.20;;;9.00;;
29362;SDS011;16349;53.672;10.014;2022-10-13T08:55:10;21.60;;;9.50;;
29362;SDS011;16349;53.672;10.014;2022-10-13T08:57:45;11.60;;;8.43;;
29362;SDS011;16349;53.672;10.014;2022-10-13T09:00:15;15.63;;;8.83;;
29362;SDS011;16349;53.672;10.014;2022-10-13T09:02:47;18.13;;;8.93;;
29362;SDS011;16349;53.672;10.014;2022-10-13T09:05:18;13.90;;;10.00;;
29362;SDS011;16349;53.672;10.014;2022-10-13T09:08:03;18.70;;;9.23;;
29362;SDS011;16349;53.672;10.014;2022-10-13T09:10:44;23.50;;;9.67;;
29362;SDS011;16349;53.672;10.014;2022-10-13T09:13:15;20.20;;;10.30;;
29362;SDS011;16349;53.672;10.014;2022-10-13T09:15:43;14.67;;;9.50;;
29362;SDS011;16349;53.672;10.014;2022-10-13T09:18:12;16.07;;;8.97;;
29362;SDS011;16349;53.672;10.014;2022-10-13T09:20:39;15.23;;;9.50;;
29362;SDS011;16349;53.672;10.014;2022-10-13T09:23:14;20.00;;;9.63;;
29362;SDS011;16349;53.672;10.014;2022-10-13T09:25:45;21.03;;;10.53;;
29362;SDS011;16349;53.672;10.014;2022-10-13T09:28:15;16.30;;;10.37;;
29362;SDS011;16349;53.672;10.014;2022-10-13T09:30:44;18.30;;;10.97;;
29362;SDS011;16349;53.672;10.014;2022-10-13T09:33:17;19.97;;;10.87;;
29362;SDS011;16349;53.672;10.014;2022-10-13T09:35:47;17.43;;;10.20;;
29362;SDS011;16349;53.672;10.014;2022-10-13T09:38:33;16.73;;;10.80;;
29362;SDS011;16349;53.672;10.014;2022-10-13T09:41:01;24.67;;;10.73;;
29362;SDS011;16349;53.672;10.014;2022-10-13T09:43:34;16.40;;;11.07;;
29362;SDS011;16349;53.672;10.014;2022-10-13T09:46:10;17.87;;;10.13;;
29362;SDS011;16349;53.672;10.014;2022-10-13T09:48:38;22.53;;;10.83;;
29362;SDS011;16349;53.672;10.014;2022-10-13T09:51:10;17.70;;;10.80;;
29362;SDS011;16349;53.672;10.014;2022-10-13T09:54:24;19.00;;;10.43;;
29362;SDS011;16349;53.672;10.014;2022-10-13T09:56:53;21.07;;;10.83;;
29362;SDS011;16349;53.672;10.014;2022-10-13T09:59:27;19.23;;;10.97;;
29362;SDS011;16349;53.672;10.014;2022-10-13T10:02:00;19.07;;;11.00;;
29362;SDS011;16349;53.672;10.014;2022-10-13T10:04:38;20.90;;;11.23;;
29362;SDS011;16349;53.672;10.014;2022-10-13T10:07:09;20.20;;;11.03;;
29362;SDS011;16349;53.672;10.014;2022-10-13T10:09:39;13.97;;;11.00;;
29362;SDS011;16349;53.672;10.014;2022-10-13T10:12:11;16.47;;;10.97;;
29362;SDS011;16349;53.672;10.014;2022-10-13T10:14:41;17.90;;;11.40;;
29362;SDS011;16349;53.672;10.014;2022-10-13T10:17:11;20.57;;;11.57;;
29362;SDS011;16349;53.672;10.014;2022-10-13T10:19:47;21.57;;;11.10;;
29362;SDS011;16349;53.672;10.014;2022-10-13T10:22:26;21.27;;;11.37;;
29362;SDS011;16349;53.672;10.014;2022-10-13T10:25:06;17.17;;;11.13;;
29362;SDS011;16349;53.672;10.014;2022-10-13T10:27:48;20.70;;;11.73;;
29362;SDS011;16349;53.672;10.014;2022-10-13T10:30:22;17.83;;;11.20;;
29362;SDS011;16349;53.672;10.014;2022-10-13T10:32:51;19.70;;;11.63;;
29362;SDS011;16349;53.672;10.014;2022-10-13T10:35:26;15.73;;;10.50;;
29362;SDS011;16349;53.672;10.014;2022-10-13T10:38:06;17.67;;;10.50;;
29362;SDS011;16349;53.672;10.014;2022-10-13T10:40:50;21.10;;;10.47;;
29362;SDS011;16349;53.672;10.014;2022-10-13T10:46:16;16.40;;;10.90;;
29362;SDS011;16349;53.672;10.014;2022-10-13T10:49:11;17.63;;;11.20;;
29362;SDS011;16349;53.672;10.014;2022-10-13T10:51:42;17.43;;;11.23;;
29362;SDS011;16349;53.672;10.014;2022-10-13T10:54:15;20.03;;;11.13;;
29362;SDS011;16349;53.672;10.014;2022-10-13T10:56:50;18.13;;;11.23;;
29362;SDS011;16349;53.672;10.014;2022-10-13T10:59:24;16.37;;;11.07;;
29362;SDS011;16349;53.672;10.014;2022-10-13T11:02:00;18.77;;;9.97;;
29362;SDS011;16349;53.672;10.014;2022-10-13T11:04:38;24.77;;;11.60;;
29362;SDS011;16349;53.672;10.014;2022-10-13T11:07:13;20.70;;;11.73;;
29362;SDS011;16349;53.672;10.014;2022-10-13T11:10:16;19.47;;;10.70;;
29362;SDS011;16349;53.672;10.014;2022-10-13T11:15:46;17.90;;;11.53;;
29362;SDS011;16349;53.672;10.014;2022-10-13T11:21:19;15.03;;;10.27;;
29362;SDS011;16349;53.672;10.014;2022-10-13T11:23:46;17.07;;;10.20;;
29362;SDS011;16349;53.672;10.014;2022-10-13T11:26:23;16.03;;;9.93;;
29362;SDS011;16349;53.672;10.014;2022-10-13T11:28:55;15.83;;;10.20;;
29362;SDS011;16349;53.672;10.014;2022-10-13T11:31:24;13.77;;;9.97;;
29362;SDS011;16349;53.672;10.014;2022-10-13T11:33:57;16.13;;;10.37;;
29362;SDS011;16349;53.672;10.014;2022-10-13T11:42:41;13.63;;;9.47;;
29362;SDS011;16349;53.672;10.014;2022-10-13T11:51:31;18.20;;;10.27;;
29362;SDS011;16349;53.672;10.014;2022-10-13T11:54:13;16.07;;;10.37;;
29362;SDS011;16349;53.672;10.014;2022-10-13T11:56:49;14.10;;;9.57;;
29362;SDS011;16349;53.672;10.014;2022-10-13T11:59:22;15.60;;;10.70;;
29362;SDS011;16349;53.672;10.014;2022-10-13T12:01:54;17.37;;;9.90;;
29362;SDS011;16349;53.672;10.014;2022-10-13T12:04:23;14.13;;;9.33;;
29362;SDS011;16349;53.672;10.014;2022-10-13T12:06:54;15.10;;;9.80;;
29362;SDS011;16349;53.672;10.014;2022-10-13T12:09:25;14.43;;;9.30;;
29362;SDS011;16349;53.672;10.014;2022-10-13T12:11:57;15.20;;;9.33;;
29362;SDS011;16349;53.672;10.014;2022-10-13T12:14:30;14.83;;;8.97;;
29362;SDS011;16349;53.672;10.014;2022-10-13T12:17:00;15.37;;;8.97;;
29362;SDS011;16349;53.672;10.014;2022-10-13T12:19:28;13.30;;;9.43;;
29362;SDS011;16349;53.672;10.014;2022-10-13T12:21:57;15.40;;;9.90;;
29362;SDS011;16349;53.672;10.014;2022-10-13T12:24:26;13.80;;;9.57;;
29362;SDS011;16349;53.672;10.014;2022-10-13T12:26:54;14.67;;;8.97;;
29362;SDS011;16349;53.672;10.014;2022-10-13T12:29:24;12.23;;;9.97;;
29362;SDS011;16349;53.672;10.014;2022-10-13T12:31:54;12.00;;;9.20;;
29362;SDS011;16349;53.672;10.014;2022-10-13T12:34:23;14.37;;;9.53;;
29362;SDS011;16349;53.672;10.014;2022-10-13T12:36:56;20.93;;;10.60;;
29362;SDS011;16349;53.672;10.014;2022-10-13T12:39:26;13.63;;;8.90;;
29362;SDS011;16349;53.672;10.014;2022-10-13T12:41:54;16.83;;;9.23;;
29362;SDS011;16349;53.672;10.014;2022-10-13T12:44:23;18.70;;;9.63;;
29362;SDS011;16349;53.672;10.014;2022-10-13T12:46:54;13.27;;;9.60;;
29362;SDS011;16349;53.672;10.014;2022-10-13T12:49:24;15.57;;;10.00;;
29362;SDS011;16349;53.672;10.014;2022-10-13T12:51:53;15.30;;;9.73;;
29362;SDS011;16349;53.672;10.014;2022-10-13T12:54:24;15.73;;;9.40;;
29362;SDS011;16349;53.672;10.014;2022-10-13T12:56:55;17.23;;;10.00;;
29362;SDS011;16349;53.672;10.014;2022-10-13T12:59:24;14.00;;;9.27;;
29362;SDS011;16349;53.672;10.014;2022-10-13T13:01:56;13.00;;;9.67;;
29362;SDS011;16349;53.672;10.014;2022-10-13T13:04:28;17.37;;;9.80;;
29362;SDS011;16349;53.672;10.014;2022-10-13T13:07:04;16.70;;;9.73;;
29362;SDS011;16349;53.672;10.014;2022-10-13T13:09:57;16.00;;;10.00;;
29362;SDS011;16349;53.672;10.014;2022-10-13T13:12:26;17.53;;;10.10;;
29362;SDS011;16349;53.672;10.014;2022-10-13T13:14:53;15.13;;;10.00;;
29362;SDS011;16349;53.672;10.014;2022-10-13T13:17:32;18.90;;;9.67;;
29362;SDS011;16349;53.672;10.014;2022-10-13T13:19:59;16.40;;;9.73;;
29362;SDS011;16349;53.672;10.014;2022-10-13T13:22:26;18.40;;;9.70;;
29362;SDS011;16349;53.672;10.014;2022-10-13T13:24:53;16.37;;;10.33;;
29362;SDS011;16349;53.672;10.014;2022-10-13T13:27:22;17.20;;;9.20;;
29362;SDS011;16349;53.672;10.014;2022-10-13T13:29:50;12.13;;;8.67;;
29362;SDS011;16349;53.672;10.014;2022-10-13T13:32:19;18.40;;;9.63;;
29362;SDS011;16349;53.672;10.014;2022-10-13T13:34:48;17.77;;;9.23;;
29362;SDS011;16349;53.672;10.014;2022-10-13T13:37:19;14.03;;;9.63;;
29362;SDS011;16349;53.672;10.014;2022-10-13T13:39:51;15.10;;;9.70;;
29362;SDS011;16349;53.672;10.014;2022-10-13T13:42:17;12.57;;;9.33;;
29362;SDS011;16349;53.672;10.014;2022-10-13T13:44:46;20.40;;;9.37;;
29362;SDS011;16349;53.672;10.014;2022-10-13T13:47:14;13.13;;;9.00;;
29362;SDS011;16349;53.672;10.014;2022-10-13T13:49:44;17.50;;;9.40;;
29362;SDS011;16349;53.672;10.014;2022-10-13T13:52:12;15.50;;;9.23;;
29362;SDS011;16349;53.672;10.014;2022-10-13T13:54:39;14.07;;;10.33;;
29362;SDS011;16349;53.672;10.014;2022-10-13T13:57:06;13.90;;;9.53;;
29362;SDS011;16349;53.672;10.014;2022-10-13T13:59:34;17.37;;;9.40;;
29362;SDS011;16349;53.672;10.014;2022-10-13T14:02:00;15.47;;;10.07;;
29362;SDS011;16349;53.672;10.014;2022-10-13T14:04:31;15.53;;;9.20;;
29362;SDS011;16349;53.672;10.014;2022-10-13T14:06:58;12.17;;;9.50;;
29362;SDS011;16349;53.672;10.014;2022-10-13T14:09:27;12.80;;;9.33;;
29362;SDS011;16349;53.672;10.014;2022-10-13T14:11:53;11.77;;;9.50;;
29362;SDS011;16349;53.672;10.014;2022-10-13T14:14:20;18.80;;;9.93;;
29362;SDS011;16349;53.672;10.014;2022-10-13T14:16:47;14.60;;;9.93;;
29362;SDS011;16349;53.672;10.014;2022-10-13T14:19:14;15.03;;;9.57;;
29362;SDS011;16349;53.672;10.014;2022-10-13T14:21:41;16.00;;;10.07;;
29362;SDS011;16349;53.672;10.014;2022-10-13T14:24:13;12.97;;;8.97;;
29362;SDS011;16349;53.672;10.014;2022-10-13T14:26:41;13.93;;;9.57;;
29362;SDS011;16349;53.672;10.014;2022-10-13T14:29:08;15.57;;;10.00;;
29362;SDS011;16349;53.672;10.014;2022-10-13T14:31:35;15.53;;;9.17;;
29362;SDS011;16349;53.672;10.014;2022-10-13T14:34:02;16.20;;;9.57;;
29362;SDS011;16349;53.672;10.014;2022-10-13T14:36:31;15.23;;;9.93;;
29362;SDS011;16349;53.672;10.014;2022-10-13T14:38:57;15.93;;;9.37;;
29362;SDS011;16349;53.672;10.014;2022-10-13T14:41:24;14.53;;;9.67;;
29362;SDS011;16349;53.672;10.014;2022-10-13T14:43:53;18.43;;;9.97;;
29362;SDS011;16349;53.672;10.014;2022-10-13T14:46:20;18.70;;;9.83;;
29362;SDS011;16349;53.672;10.014;2022-10-13T14:48:48;16.73;;;9.83;;
29362;SDS011;16349;53.672;10.014;2022-10-13T14:51:16;16.43;;;9.57;;
29362;SDS011;16349;53.672;10.014;2022-10-13T14:53:43;15.57;;;9.67;;
29362;SDS011;16349;53.672;10.014;2022-10-13T14:56:12;17.97;;;10.10;;
29362;SDS011;16349;53.672;10.014;2022-10-13T14:58:48;18.57;;;9.70;;
29362;SDS011;16349;53.672;10.014;2022-10-13T15:01:19;17.13;;;9.60;;